Time;durP1;ratioP1;P1;durP2;ratioP2;P2;SDS_P1;SDS_P2;PMS_P1;PMS_P2;Temp;Humidity;BMP_temperature;BMP_pressure;BME280_temperature;BME280_humidity;BME280_pressure;Samples;Min_cycle;Max_cycle;Signal;HPM_P1;HPM_P2
2021/11/22 00:00:59;;;;;;;18.58;11.48;;;9.10;68.80;;;;;;5039361;28;20421;-36
2021/11/22 00:03:27;;;;;;;18.38;11.98;;;9.20;68.60;;;;;;5039181;28;20480;-36
2021/11/22 00:05:53;;;;;;;20.40;12.68;;;9.20;68.60;;;;;;5039124;28;20330;-35
2021/11/22 00:08:19;;;;;;;18.80;12.07;;;9.20;68.80;;;;;;5038642;28;20446;-46
2021/11/22 00:10:45;;;;;;;21.08;12.43;;;9.20;68.70;;;;;;5039232;28;20080;-35
2021/11/22 00:13:11;;;;;;;18.92;11.85;;;9.10;68.60;;;;;;5038901;28;20104;-36
2021/11/22 00:15:37;;;;;;;24.48;12.85;;;9.10;68.60;;;;;;5038644;28;20125;-35
2021/11/22 00:18:03;;;;;;;22.67;12.63;;;9.20;68.80;;;;;;5038531;28;20034;-38
2021/11/22 00:20:29;;;;;;;20.38;12.43;;;9.10;68.70;;;;;;5039149;28;20034;-46
2021/11/22 00:22:54;;;;;;;21.33;12.93;;;9.10;68.70;;;;;;5038379;28;20528;-36
2021/11/22 00:25:21;;;;;;;19.15;12.20;;;9.10;68.70;;;;;;5038925;28;20080;-46
2021/11/22 00:27:47;;;;;;;20.67;12.18;;;9.10;68.80;;;;;;5038205;28;20112;-37
2021/11/22 00:30:14;;;;;;;19.75;11.40;;;9.00;68.90;;;;;;5038792;28;20091;-37
2021/11/22 00:32:43;;;;;;;20.42;12.55;;;9.00;68.90;;;;;;5038262;28;20438;-46
2021/11/22 00:35:09;;;;;;;20.85;13.25;;;9.00;68.90;;;;;;5038349;28;20132;-34
2021/11/22 00:37:37;;;;;;;23.77;13.82;;;9.00;69.00;;;;;;5038155;28;20034;-35
2021/11/22 00:40:05;;;;;;;22.35;11.85;;;8.90;69.10;;;;;;5038106;28;20099;-35
2021/11/22 00:42:31;;;;;;;22.67;12.43;;;8.90;69.20;;;;;;5038115;28;20029;-46
2021/11/22 00:44:57;;;;;;;19.63;11.70;;;8.80;69.30;;;;;;5037814;28;20032;-46
2021/11/22 00:47:23;;;;;;;20.45;12.27;;;8.80;69.50;;;;;;5038215;28;20029;-36
2021/11/22 00:49:49;;;;;;;19.08;12.30;;;8.80;69.60;;;;;;5038290;28;20036;-36
2021/11/22 00:52:16;;;;;;;21.02;12.13;;;8.70;69.60;;;;;;5038005;28;20041;-36
2021/11/22 00:54:42;;;;;;;20.90;12.13;;;8.70;69.70;;;;;;5037813;28;20049;-36
2021/11/22 00:57:07;;;;;;;21.65;13.43;;;8.60;69.80;;;;;;5037600;28;20414;-34
2021/11/22 00:59:34;;;;;;;19.20;12.82;;;8.60;69.90;;;;;;5038266;28;20026;-45
2021/11/22 01:02:00;;;;;;;19.17;12.05;;;8.60;70.10;;;;;;5037918;28;20041;-36
2021/11/22 01:04:26;;;;;;;21.27;12.05;;;8.50;70.10;;;;;;5037760;28;20028;-36
2021/11/22 01:06:52;;;;;;;21.02;12.82;;;8.40;70.10;;;;;;5037541;28;20026;-45
2021/11/22 01:09:18;;;;;;;23.52;14.07;;;8.40;70.30;;;;;;5037889;28;20022;-36
2021/11/22 01:11:45;;;;;;;18.88;12.32;;;8.40;70.40;;;;;;5037375;28;20041;-46
2021/11/22 01:14:12;;;;;;;18.42;11.45;;;8.30;70.50;;;;;;5037839;28;20053;-38
2021/11/22 01:16:38;;;;;;;20.58;12.40;;;8.30;70.60;;;;;;5037324;28;20034;-36
2021/11/22 01:19:05;;;;;;;19.83;12.20;;;8.20;70.70;;;;;;5037863;28;20034;-38
2021/11/22 01:21:31;;;;;;;17.88;11.85;;;8.20;70.90;;;;;;5037290;28;20076;-36
2021/11/22 01:23:57;;;;;;;19.50;12.05;;;8.20;71.00;;;;;;5037768;28;20480;-34
2021/11/22 01:26:23;;;;;;;19.38;11.18;;;8.10;71.10;;;;;;5037324;28;20033;-45
2021/11/22 01:28:49;;;;;;;21.30;12.63;;;8.10;71.30;;;;;;5037600;28;20103;-46
2021/11/22 01:31:15;;;;;;;21.30;11.70;;;8.00;71.30;;;;;;5037217;28;20029;-46
2021/11/22 01:33:41;;;;;;;19.52;11.63;;;8.00;71.40;;;;;;5037241;28;20108;-46
2021/11/22 01:36:07;;;;;;;20.55;12.52;;;7.90;71.50;;;;;;5037964;28;20105;-35
2021/11/22 01:38:33;;;;;;;20.05;11.45;;;7.90;71.70;;;;;;5037028;28;20044;-46
2021/11/22 01:41:01;;;;;;;19.73;12.30;;;7.90;71.80;;;;;;5037084;28;20083;-46
2021/11/22 01:43:28;;;;;;;20.25;11.77;;;7.80;72.00;;;;;;5036940;28;20113;-36
2021/11/22 01:45:54;;;;;;;22.52;11.88;;;7.80;72.30;;;;;;5037367;28;20018;-36
2021/11/22 01:48:20;;;;;;;18.60;11.23;;;7.80;72.60;;;;;;5036769;28;20047;-46
2021/11/22 01:50:47;;;;;;;18.92;11.55;;;7.90;72.80;;;;;;5037401;28;20034;-35
2021/11/22 01:53:15;;;;;;;16.75;11.07;;;7.90;72.90;;;;;;5036791;28;20139;-35
2021/11/22 01:55:42;;;;;;;18.80;10.98;;;7.90;72.90;;;;;;5035707;28;20046;-36
2021/11/22 01:58:08;;;;;;;16.67;10.70;;;8.00;72.90;;;;;;5036625;28;20037;-35
2021/11/22 02:00:48;;;;;;;19.20;11.75;;;8.10;72.90;;;;;;5037303;28;20112;-36
2021/11/22 02:03:18;;;;;;;20.35;11.70;;;8.20;72.90;;;;;;5036689;28;20030;-46
2021/11/22 02:05:45;;;;;;;17.25;10.60;;;8.20;72.80;;;;;;5036613;28;20033;-35
2021/11/22 02:08:14;;;;;;;19.63;11.98;;;8.30;72.80;;;;;;5036576;28;20105;-46
2021/11/22 02:10:40;;;;;;;17.98;11.15;;;8.30;72.70;;;;;;5037018;28;20124;-42
2021/11/22 02:13:06;;;;;;;19.77;10.80;;;8.40;72.70;;;;;;5036268;28;20438;-46
2021/11/22 02:15:32;;;;;;;15.30;10.98;;;8.50;72.70;;;;;;5036351;28;20060;-46
2021/11/22 02:17:58;;;;;;;18.38;10.85;;;8.50;72.50;;;;;;5036342;28;20021;-35
2021/11/22 02:20:27;;;;;;;16.83;10.10;;;8.60;72.50;;;;;;5036898;28;20029;-46
2021/11/22 02:22:55;;;;;;;20.58;11.35;;;8.60;72.40;;;;;;5036062;28;20076;-35
2021/11/22 02:25:23;;;;;;;19.25;11.25;;;8.70;72.20;;;;;;5036820;28;20059;-39
2021/11/22 02:27:49;;;;;;;17.88;10.73;;;8.70;72.00;;;;;;5036027;28;20033;-37
2021/11/22 02:30:17;;;;;;;17.13;11.15;;;8.80;72.00;;;;;;5036665;28;20064;-36
2021/11/22 02:32:44;;;;;;;15.20;10.20;;;8.80;72.00;;;;;;5036035;28;20034;-43
2021/11/22 02:35:16;;;;;;;17.50;10.48;;;8.80;71.90;;;;;;5036412;28;20029;-36
2021/11/22 02:37:42;;;;;;;17.77;11.05;;;8.90;71.90;;;;;;5035961;28;20026;-34
2021/11/22 02:40:08;;;;;;;15.27;10.32;;;8.90;71.80;;;;;;5036333;28;20444;-46
2021/11/22 02:42:36;;;;;;;19.15;10.68;;;8.90;71.80;;;;;;5035985;28;20026;-46
2021/11/22 02:45:03;;;;;;;20.95;12.43;;;9.00;71.70;;;;;;5036254;28;20033;-45
2021/11/22 02:47:29;;;;;;;17.67;11.77;;;9.00;71.20;;;;;;5035778;28;20109;-34
2021/11/22 02:49:55;;;;;;;24.50;12.55;;;9.00;70.90;;;;;;5036268;28;20109;-41
2021/11/22 02:52:20;;;;;;;22.40;12.90;;;9.00;70.90;;;;;;5035842;28;20026;-45
2021/11/22 02:54:46;;;;;;;19.70;12.70;;;8.90;70.70;;;;;;5036007;28;20044;-35
2021/11/22 02:57:14;;;;;;;18.23;11.98;;;8.90;70.80;;;;;;5035517;28;20029;-46
2021/11/22 02:59:40;;;;;;;22.58;12.13;;;8.90;70.80;;;;;;5035961;28;20033;-46
2021/11/22 03:02:12;;;;;;;19.15;12.02;;;8.80;70.70;;;;;;5035578;28;20034;-35
2021/11/22 03:04:41;;;;;;;20.38;12.73;;;8.80;70.70;;;;;;5036155;28;20044;-45
2021/11/22 03:07:09;;;;;;;21.58;12.05;;;8.80;70.80;;;;;;5035457;28;20322;-35
2021/11/22 03:09:36;;;;;;;22.13;12.43;;;8.80;71.00;;;;;;5035968;28;20026;-35
2021/11/22 03:12:08;;;;;;;24.67;12.20;;;8.70;71.00;;;;;;5035320;28;20069;-46
2021/11/22 03:14:35;;;;;;;21.58;13.20;;;8.70;71.20;;;;;;5036273;28;20414;-35
2021/11/22 03:17:01;;;;;;;21.95;12.65;;;8.70;71.20;;;;;;5035385;28;20040;-35
2021/11/22 03:19:27;;;;;;;19.73;12.70;;;8.60;71.30;;;;;;5035813;28;20121;-46
2021/11/22 03:21:53;;;;;;;21.55;12.57;;;8.60;71.30;;;;;;5035319;28;20116;-36
2021/11/22 03:24:20;;;;;;;20.00;12.18;;;8.60;71.30;;;;;;5035755;28;20029;-35
2021/11/22 03:26:46;;;;;;;23.90;13.80;;;8.50;71.40;;;;;;5035265;28;20041;-46
2021/11/22 03:29:12;;;;;;;22.15;13.30;;;8.40;71.50;;;;;;5035739;28;20116;-46
2021/11/22 03:31:39;;;;;;;18.33;12.32;;;8.30;71.70;;;;;;5035334;28;20083;-46
2021/11/22 03:34:07;;;;;;;20.17;12.40;;;8.30;71.90;;;;;;5035813;28;20317;-36
2021/11/22 03:36:33;;;;;;;21.98;13.35;;;8.20;72.00;;;;;;5035370;28;20038;-34
2021/11/22 03:39:00;;;;;;;19.88;12.15;;;8.20;72.30;;;;;;5035464;28;20049;-46
2021/11/22 03:41:28;;;;;;;20.08;12.75;;;8.10;72.40;;;;;;5035244;28;20034;-45
2021/11/22 03:43:59;;;;;;;82.95;33.20;;;8.10;72.70;;;;;;5035798;28;20030;-35
2021/11/22 03:46:25;;;;;;;51.97;23.92;;;8.00;72.70;;;;;;5035198;28;20048;-46
2021/11/22 03:48:52;;;;;;;71.90;28.42;;;8.00;72.80;;;;;;5035621;28;20414;-45
2021/11/22 03:51:18;;;;;;;58.90;26.45;;;8.00;73.00;;;;;;5035564;28;20068;-45
2021/11/22 03:53:44;;;;;;;30.58;16.85;;;8.00;73.00;;;;;;5035402;28;20030;-47
2021/11/22 03:56:10;;;;;;;27.42;15.73;;;8.00;73.20;;;;;;5034972;28;20062;-35
2021/11/22 03:58:36;;;;;;;29.27;17.50;;;7.90;73.30;;;;;;5035340;28;20432;-46
2021/11/22 04:01:03;;;;;;;22.40;13.20;;;7.90;73.30;;;;;;5035746;28;20037;-39
2021/11/22 04:03:29;;;;;;;23.15;12.73;;;7.90;73.30;;;;;;5035295;28;20410;-35
2021/11/22 04:05:55;;;;;;;23.65;13.73;;;7.90;73.30;;;;;;5035197;28;20311;-35
2021/11/22 04:08:20;;;;;;;22.67;13.80;;;7.90;73.30;;;;;;5035335;28;20030;-46
2021/11/22 04:10:47;;;;;;;23.73;13.88;;;7.90;73.30;;;;;;5035580;28;20030;-35
2021/11/22 04:13:13;;;;;;;19.95;12.48;;;7.80;73.30;;;;;;5035378;28;20447;-34
2021/11/22 04:15:39;;;;;;;26.50;13.27;;;7.80;73.30;;;;;;5035298;28;20029;-34
2021/11/22 04:18:05;;;;;;;21.17;12.77;;;7.70;73.30;;;;;;5034854;28;20037;-37
2021/11/22 04:20:31;;;;;;;19.58;13.13;;;7.70;73.40;;;;;;5038132;28;20041;-47
2021/11/22 04:22:58;;;;;;;22.17;13.00;;;7.60;73.30;;;;;;5038590;28;20033;-41
2021/11/22 04:25:24;;;;;;;23.27;12.98;;;7.60;73.40;;;;;;5038954;28;20029;-45
2021/11/22 04:27:50;;;;;;;23.98;14.02;;;7.50;73.50;;;;;;5038144;28;20034;-47
2021/11/22 04:30:16;;;;;;;44.53;23.63;;;7.50;73.60;;;;;;5038931;28;20291;-32
2021/11/22 04:32:43;;;;;;;36.20;19.65;;;7.40;73.70;;;;;;5038256;28;20307;-32
2021/11/22 04:35:11;;;;;;;35.88;20.23;;;7.40;73.90;;;;;;5038590;28;20021;-32
2021/11/22 04:37:38;;;;;;;28.63;16.55;;;7.30;74.10;;;;;;5038489;28;20151;-39
2021/11/22 04:40:07;;;;;;;36.40;20.02;;;7.30;74.30;;;;;;5038597;28;20021;-32
2021/11/22 04:42:33;;;;;;;28.55;15.68;;;7.20;74.40;;;;;;5037951;28;20036;-32
2021/11/22 04:44:59;;;;;;;27.58;14.90;;;7.20;74.50;;;;;;5038401;28;20349;-39
2021/11/22 04:47:25;;;;;;;21.38;13.43;;;7.10;74.40;;;;;;5038090;28;20037;-32
2021/11/22 04:49:52;;;;;;;27.05;14.75;;;7.00;74.40;;;;;;5037984;28;20444;-40
2021/11/22 04:52:19;;;;;;;30.20;15.45;;;7.00;74.60;;;;;;5038160;28;20502;-32
2021/11/22 04:54:46;;;;;;;25.98;15.57;;;6.90;74.60;;;;;;5037917;28;20315;-40
2021/11/22 04:57:12;;;;;;;23.60;14.02;;;6.80;74.70;;;;;;5037998;28;20033;-39
2021/11/22 04:59:39;;;;;;;43.65;21.85;;;6.80;74.70;;;;;;5038029;28;20025;-40
2021/11/22 05:02:05;;;;;;;26.95;16.05;;;6.70;74.70;;;;;;5037566;28;20078;-32
2021/11/22 05:04:31;;;;;;;28.70;15.63;;;6.60;74.90;;;;;;5037920;28;20033;-32
2021/11/22 05:06:56;;;;;;;25.52;15.40;;;6.60;75.00;;;;;;5037090;28;20030;-40
2021/11/22 05:09:22;;;;;;;28.63;16.60;;;6.60;75.20;;;;;;5038041;28;20053;-40
2021/11/22 05:11:49;;;;;;;28.25;15.90;;;6.50;75.40;;;;;;5037442;28;20034;-32
2021/11/22 05:14:15;;;;;;;28.90;16.30;;;6.50;75.60;;;;;;5037688;28;20060;-40
2021/11/22 05:16:42;;;;;;;34.42;17.70;;;6.40;75.80;;;;;;5037388;28;20108;-32
2021/11/22 05:19:08;;;;;;;30.08;16.85;;;6.40;76.60;;;;;;5037729;28;20025;-40
2021/11/22 05:21:34;;;;;;;30.40;18.58;;;6.30;76.20;;;;;;5037027;28;20025;-47
2021/11/22 05:24:01;;;;;;;32.60;18.02;;;6.30;76.30;;;;;;5037499;28;20022;-37
2021/11/22 05:26:29;;;;;;;31.85;16.70;;;6.20;76.50;;;;;;5036959;28;20033;-36
2021/11/22 05:28:55;;;;;;;27.95;17.38;;;6.20;76.70;;;;;;5040416;28;20042;-38
2021/11/22 05:31:21;;;;;;;36.53;23.83;;;6.10;76.80;;;;;;5036815;28;20029;-46
2021/11/22 05:33:46;;;;;;;51.33;29.45;;;6.10;76.90;;;;;;5038314;28;20024;-47
2021/11/22 05:36:12;;;;;;;39.38;21.52;;;6.10;77.00;;;;;;5055424;28;20299;-36
2021/11/22 05:38:38;;;;;;;41.55;22.98;;;6.10;77.10;;;;;;5056880;28;20108;-43
2021/11/22 05:41:04;;;;;;;32.83;18.58;;;6.00;77.20;;;;;;5051284;28;20034;-47
2021/11/22 05:43:29;;;;;;;40.20;21.55;;;6.00;77.30;;;;;;5036841;28;20033;-47
2021/11/22 05:45:55;;;;;;;38.80;19.27;;;6.00;77.40;;;;;;5036690;28;20310;-35
2021/11/22 05:48:21;;;;;;;34.45;20.10;;;6.00;77.60;;;;;;5036326;28;20033;-37
2021/11/22 05:50:55;;;;;;;31.60;19.08;;;6.00;77.70;;;;;;5037335;28;20029;-36
2021/11/22 05:53:21;;;;;;;35.75;19.33;;;6.00;77.80;;;;;;5036550;28;20116;-35
2021/11/22 05:55:51;;;;;;;44.65;19.67;;;6.00;77.90;;;;;;5036453;28;20071;-46
2021/11/22 05:58:18;;;;;;;40.80;21.35;;;6.00;78.10;;;;;;5036598;28;20083;-36
2021/11/22 06:00:43;;;;;;;49.83;29.40;;;6.00;78.20;;;;;;5036909;28;20026;-46
2021/11/22 06:03:10;;;;;;;105.65;67.97;;;6.00;78.30;;;;;;5036511;28;20112;-36
2021/11/22 06:05:36;;;;;;;55.85;32.88;;;6.00;78.30;;;;;;5036960;28;20037;-47
2021/11/22 06:08:03;;;;;;;42.92;23.65;;;6.00;78.40;;;;;;5036184;28;20353;-38
2021/11/22 06:10:29;;;;;;;39.50;22.40;;;6.00;78.40;;;;;;5036629;28;20319;-39
2021/11/22 06:12:55;;;;;;;46.67;22.38;;;6.00;78.40;;;;;;5036132;28;20084;-37
2021/11/22 06:15:21;;;;;;;46.58;19.73;;;6.10;78.60;;;;;;5036619;28;20025;-46
2021/11/22 06:17:47;;;;;;;42.22;21.25;;;6.10;78.60;;;;;;5037181;28;20306;-38
2021/11/22 06:20:12;;;;;;;41.03;20.27;;;6.10;78.60;;;;;;5056142;28;20443;-37
2021/11/22 06:22:38;;;;;;;43.88;22.95;;;6.20;78.70;;;;;;5055726;28;20028;-46
2021/11/22 06:25:05;;;;;;;43.63;21.25;;;6.20;78.60;;;;;;5056011;28;20051;-39
2021/11/22 06:27:32;;;;;;;48.25;23.60;;;6.20;78.50;;;;;;5055610;28;20098;-46
2021/11/22 06:29:58;;;;;;;52.20;23.63;;;6.30;78.50;;;;;;5056055;28;20028;-36
2021/11/22 06:32:30;;;;;;;41.10;19.98;;;6.30;78.50;;;;;;5055203;28;20043;-47
2021/11/22 06:34:57;;;;;;;45.83;21.55;;;6.30;78.50;;;;;;5055928;28;20025;-47
2021/11/22 06:37:25;;;;;;;49.15;22.90;;;6.40;78.50;;;;;;5055431;28;20112;-36
2021/11/22 06:39:51;;;;;;;70.60;27.55;;;6.40;78.50;;;;;;5055692;28;20078;-38
2021/11/22 06:42:19;;;;;;;71.97;29.40;;;6.50;78.40;;;;;;5053006;28;20021;-45
2021/11/22 06:44:46;;;;;;;76.60;30.00;;;6.50;78.50;;;;;;5054695;28;20096;-45
2021/11/22 06:47:12;;;;;;;73.68;30.00;;;6.60;78.50;;;;;;5054886;28;20369;-38
2021/11/22 06:49:38;;;;;;;64.95;28.60;;;6.60;78.50;;;;;;5055604;28;20036;-34
2021/11/22 06:52:03;;;;;;;68.22;29.95;;;6.70;78.40;;;;;;5055062;28;20032;-47
2021/11/22 06:54:29;;;;;;;61.03;27.30;;;6.70;78.30;;;;;;5054922;28;20110;-47
2021/11/22 06:56:55;;;;;;;69.38;33.60;;;6.80;78.40;;;;;;5055237;28;20306;-48
2021/11/22 06:59:21;;;;;;;68.68;31.42;;;6.90;78.40;;;;;;5055584;28;20427;-35
2021/11/22 07:01:46;;;;;;;62.13;31.83;;;7.00;78.40;;;;;;5055278;28;20108;-36
2021/11/22 07:04:12;;;;;;;73.28;36.35;;;7.10;78.50;;;;;;5055792;28;20358;-35
2021/11/22 07:06:38;;;;;;;163.65;55.53;;;7.20;78.50;;;;;;5055179;28;20562;-47
2021/11/22 07:09:04;;;;;;;86.18;37.88;;;7.30;78.50;;;;;;5055229;28;20024;-36
2021/11/22 07:11:31;;;;;;;61.00;28.05;;;7.50;78.60;;;;;;5055200;28;20091;-39
2021/11/22 07:13:57;;;;;;;57.08;28.88;;;7.60;78.50;;;;;;5055099;28;20033;-36
2021/11/22 07:16:23;;;;;;;54.67;26.23;;;7.70;78.30;;;;;;5054854;28;20033;-47
2021/11/22 07:18:49;;;;;;;53.13;23.65;;;7.90;78.20;;;;;;5055362;28;20091;-36
2021/11/22 07:21:15;;;;;;;36.55;18.73;;;8.00;78.00;;;;;;5055240;28;20043;-37
2021/11/22 07:23:40;;;;;;;40.85;20.20;;;8.20;77.80;;;;;;5055407;28;20028;-48
2021/11/22 07:26:06;;;;;;;31.20;15.55;;;8.30;77.70;;;;;;5053786;28;20029;-48
2021/11/22 07:28:32;;;;;;;28.38;16.52;;;8.40;77.40;;;;;;5054589;28;20425;-47
2021/11/22 07:30:58;;;;;;;28.88;16.30;;;8.60;77.20;;;;;;5055456;28;20309;-35
2021/11/22 07:33:24;;;;;;;28.65;16.30;;;8.70;77.00;;;;;;5054954;28;20036;-35
2021/11/22 07:35:50;;;;;;;28.08;14.02;;;8.90;76.70;;;;;;5055368;28;20528;-46
2021/11/22 07:38:16;;;;;;;23.88;13.75;;;9.00;76.10;;;;;;5054985;28;20060;-46
2021/11/22 07:40:42;;;;;;;20.45;12.00;;;9.10;75.70;;;;;;5054903;28;20029;-47
2021/11/22 07:43:07;;;;;;;24.15;12.50;;;9.20;75.00;;;;;;5054705;28;20191;-39
2021/11/22 07:45:33;;;;;;;25.45;13.30;;;9.30;74.50;;;;;;5055240;28;20031;-47
2021/11/22 07:47:59;;;;;;;28.50;12.90;;;9.40;74.40;;;;;;5054760;28;20094;-41
2021/11/22 07:50:27;;;;;;;22.48;11.82;;;9.50;74.30;;;;;;5054022;28;20025;-36
2021/11/22 07:52:53;;;;;;;24.35;12.57;;;9.60;74.00;;;;;;5054855;28;20147;-35
2021/11/22 07:55:21;;;;;;;21.08;12.27;;;9.60;73.50;;;;;;5057148;28;20045;-36
2021/11/22 07:57:48;;;;;;;17.50;11.15;;;9.70;73.40;;;;;;5058732;28;20344;-34
2021/11/22 08:00:14;;;;;;;19.08;11.48;;;9.80;73.00;;;;;;5057759;28;20083;-34
2021/11/22 08:02:40;;;;;;;24.85;11.38;;;9.80;72.80;;;;;;5058262;28;20025;-45
2021/11/22 08:05:08;;;;;;;20.95;11.65;;;9.90;72.70;;;;;;5056649;28;20051;-40
2021/11/22 08:07:38;;;;;;;24.17;12.80;;;9.90;72.50;;;;;;5057856;28;20321;-47
2021/11/22 08:10:15;;;;;;;25.93;12.07;;;10.00;72.30;;;;;;5058545;28;20028;-48
2021/11/22 08:12:42;;;;;;;27.48;12.23;;;10.00;72.10;;;;;;5056144;28;20070;-48
2021/11/22 08:15:12;;;;;;;19.98;11.35;;;10.00;71.90;;;;;;5038439;28;20029;-48
2021/11/22 08:17:40;;;;;;;19.07;11.53;;;10.10;72.00;;;;;;5038458;28;20030;-48
2021/11/22 08:20:07;;;;;;;19.98;12.10;;;10.10;71.50;;;;;;5038265;28;20408;-40
2021/11/22 08:22:34;;;;;;;20.17;11.32;;;10.10;71.20;;;;;;5037886;28;20418;-39
2021/11/22 08:24:59;;;;;;;19.42;12.27;;;10.10;71.20;;;;;;5038194;28;20040;-48
2021/11/22 08:27:28;;;;;;;27.38;13.82;;;10.10;71.60;;;;;;5037688;28;20033;-39
2021/11/22 08:29:55;;;;;;;19.98;12.23;;;10.10;71.20;;;;;;5038306;28;20038;-39
2021/11/22 08:32:21;;;;;;;17.40;11.95;;;10.20;71.20;;;;;;5038064;28;20035;-48
2021/11/22 08:34:46;;;;;;;23.25;13.05;;;10.20;70.80;;;;;;5037983;28;20322;-48
2021/11/22 08:37:12;;;;;;;19.77;13.40;;;10.20;70.80;;;;;;5037272;28;20033;-48
2021/11/22 08:39:38;;;;;;;34.25;17.45;;;10.20;70.60;;;;;;5038045;28;20029;-48
2021/11/22 08:42:05;;;;;;;24.25;13.45;;;10.20;70.80;;;;;;5037608;28;20092;-48
2021/11/22 08:44:33;;;;;;;24.10;13.15;;;10.20;70.80;;;;;;5037955;28;20025;-48
2021/11/22 08:46:59;;;;;;;22.77;13.13;;;10.20;70.60;;;;;;5048282;28;20037;-48
2021/11/22 08:49:25;;;;;;;22.50;12.90;;;10.20;70.60;;;;;;5037735;28;20454;-48
2021/11/22 08:51:51;;;;;;;19.17;11.85;;;10.30;70.50;;;;;;5037542;28;20385;-48
2021/11/22 08:54:17;;;;;;;21.67;12.38;;;10.30;70.40;;;;;;5037780;28;20076;-40
2021/11/22 08:56:43;;;;;;;18.98;11.82;;;10.30;70.40;;;;;;5037509;28;20422;-38
2021/11/22 08:59:09;;;;;;;19.63;12.02;;;10.30;70.40;;;;;;5037850;28;20053;-37
2021/11/22 09:01:35;;;;;;;19.17;11.82;;;10.30;70.30;;;;;;5036127;28;20056;-48
2021/11/22 09:04:01;;;;;;;20.58;11.35;;;10.30;70.30;;;;;;5037651;28;20052;-37
2021/11/22 09:06:26;;;;;;;17.88;10.77;;;10.30;70.40;;;;;;5036355;28;20030;-48
2021/11/22 09:08:52;;;;;;;17.27;10.77;;;10.30;70.40;;;;;;5036253;28;20053;-48
2021/11/22 09:11:18;;;;;;;23.45;11.13;;;10.30;70.50;;;;;;5035866;28;20036;-48
2021/11/22 09:13:45;;;;;;;15.90;10.43;;;10.30;70.40;;;;;;5037586;28;20029;-39
2021/11/22 09:16:11;;;;;;;17.48;11.10;;;10.30;70.30;;;;;;5036568;28;20422;-36
2021/11/22 09:18:38;;;;;;;17.30;10.98;;;10.30;70.40;;;;;;5037097;28;20031;-47
2021/11/22 09:21:04;;;;;;;17.48;11.00;;;10.30;70.50;;;;;;5037487;28;20036;-48
2021/11/22 09:23:31;;;;;;;15.75;10.45;;;10.30;70.70;;;;;;5036981;28;20021;-48
2021/11/22 09:25:58;;;;;;;19.73;12.43;;;10.40;70.70;;;;;;5037087;28;20116;-46
2021/11/22 09:28:24;;;;;;;18.88;11.48;;;10.40;70.70;;;;;;5036681;28;20041;-34
2021/11/22 09:30:50;;;;;;;18.55;11.52;;;10.50;70.50;;;;;;5037226;28;20361;-35
2021/11/22 09:33:16;;;;;;;17.73;11.15;;;10.40;70.90;;;;;;5036710;28;20072;-35
2021/11/22 09:35:42;;;;;;;17.58;11.10;;;10.40;70.30;;;;;;5037026;28;20036;-46
2021/11/22 09:38:08;;;;;;;16.55;10.73;;;10.40;70.20;;;;;;5035344;28;20029;-35
2021/11/22 09:40:35;;;;;;;18.88;11.10;;;10.40;70.20;;;;;;5036952;28;20116;-47
2021/11/22 09:43:01;;;;;;;15.40;9.70;;;10.40;70.40;;;;;;5036629;28;20028;-35
2021/11/22 09:45:29;;;;;;;17.08;10.80;;;10.40;70.70;;;;;;5036529;28;20032;-46
2021/11/22 09:47:57;;;;;;;18.90;11.13;;;10.40;70.70;;;;;;5036079;28;20030;-47
2021/11/22 09:50:24;;;;;;;15.73;9.68;;;10.40;70.80;;;;;;5036970;28;20082;-47
2021/11/22 09:52:50;;;;;;;11.10;7.07;;;10.50;70.80;;;;;;5036214;28;20103;-47
2021/11/22 09:55:16;;;;;;;11.85;7.40;;;10.60;70.30;;;;;;5036457;28;20049;-36
2021/11/22 09:57:42;;;;;;;11.60;7.57;;;10.60;69.70;;;;;;5036299;28;20112;-37
2021/11/22 10:00:10;;;;;;;12.15;7.45;;;10.70;69.40;;;;;;5037000;28;20117;-47
2021/11/22 10:02:45;;;;;;;13.10;8.02;;;10.70;69.20;;;;;;5036552;28;20075;-47
2021/11/22 10:05:33;;;;;;;10.57;7.07;;;10.80;69.00;;;;;;5036740;28;20029;-47
2021/11/22 10:08:09;;;;;;;10.43;6.93;;;10.90;69.00;;;;;;5035873;28;20407;-46
2021/11/22 10:10:41;;;;;;;10.57;6.93;;;10.90;68.60;;;;;;5036741;28;20105;-47
2021/11/22 10:13:31;;;;;;;8.82;6.13;;;11.00;68.40;;;;;;5035848;28;20036;-39
2021/11/22 10:16:11;;;;;;;10.65;6.45;;;11.00;68.10;;;;;;5036015;28;20416;-48
2021/11/22 10:18:47;;;;;;;;;;;11.00;67.50;;;;;;5036396;28;20053;-39
2021/11/22 10:21:16;;;;;;;11.15;7.80;;;11.00;67.70;;;;;;5036023;28;19913;-37
2021/11/22 10:23:44;;;;;;;12.75;7.32;;;10.90;67.30;;;;;;5036064;28;20113;-40
2021/11/22 10:26:14;;;;;;;9.07;5.80;;;10.90;67.40;;;;;;5036145;28;20415;-48
2021/11/22 10:28:50;;;;;;;11.30;6.63;;;10.80;67.50;;;;;;5035917;28;20044;-36
2021/11/22 10:31:20;;;;;;;8.90;6.03;;;10.80;67.70;;;;;;5034708;28;20045;-38
2021/11/22 10:33:48;;;;;;;9.27;5.97;;;10.80;67.80;;;;;;5035864;28;20029;-39
2021/11/22 10:36:17;;;;;;;7.93;5.25;;;10.80;67.80;;;;;;5035515;28;20411;-38
2021/11/22 10:38:47;;;;;;;10.52;5.82;;;10.80;67.70;;;;;;5034782;28;20052;-32
2021/11/22 10:41:16;;;;;;;9.05;5.28;;;10.80;67.50;;;;;;5034594;28;20034;-32
2021/11/22 10:44:03;;;;;;;9.57;5.50;;;10.80;67.70;;;;;;5036170;28;20029;-42
2021/11/22 10:46:46;;;;;;;8.60;5.45;;;10.80;67.50;;;;;;5035407;28;20272;-41
2021/11/22 10:49:16;;;;;;;10.77;5.20;;;10.80;67.00;;;;;;5036374;28;20087;-40
2021/11/22 10:51:49;;;;;;;8.63;5.35;;;10.90;66.90;;;;;;5045313;28;20029;-41
2021/11/22 10:54:20;;;;;;;6.72;4.20;;;10.90;67.00;;;;;;5035412;28;20444;-33
2021/11/22 10:56:49;;;;;;;6.57;3.60;;;11.00;66.70;;;;;;5035481;28;20032;-40
2021/11/22 10:59:23;;;;;;;5.03;3.33;;;11.00;66.10;;;;;;5035529;28;20155;-40
2021/11/22 11:01:52;;;;;;;5.22;3.95;;;11.00;65.30;;;;;;5035703;28;20036;-40
2021/11/22 11:04:22;;;;;;;5.90;3.88;;;11.00;65.20;;;;;;5034309;28;20404;-39
2021/11/22 11:06:48;;;;;;;5.70;3.75;;;11.00;64.80;;;;;;5035361;28;20033;-33
2021/11/22 11:09:15;;;;;;;5.85;3.30;;;11.00;64.80;;;;;;5035176;28;20299;-39
2021/11/22 11:11:42;;;;;;;7.95;4.80;;;11.00;64.40;;;;;;5035087;28;20034;-37
2021/11/22 11:14:10;;;;;;;5.40;3.30;;;11.00;64.80;;;;;;5035369;28;20033;-47
2021/11/22 11:16:38;;;;;;;6.47;3.90;;;11.00;65.00;;;;;;5034900;28;20041;-48
2021/11/22 11:19:07;;;;;;;6.53;4.20;;;11.00;65.30;;;;;;5035093;28;20033;-37
2021/11/22 11:21:39;;;;;;;5.45;3.25;;;11.00;65.50;;;;;;5034948;28;20053;-39
2021/11/22 11:24:06;;;;;;;5.47;3.45;;;11.00;65.50;;;;;;5034947;28;20032;-39
2021/11/22 11:26:33;;;;;;;5.53;3.40;;;10.90;65.40;;;;;;5034702;28;20120;-37
2021/11/22 11:28:59;;;;;;;5.47;3.40;;;10.90;65.60;;;;;;5037473;28;20036;-46
2021/11/22 11:31:26;;;;;;;7.63;3.42;;;10.90;65.90;;;;;;5039006;28;20326;-47
2021/11/22 11:33:53;;;;;;;4.25;2.92;;;10.90;66.00;;;;;;5039073;28;20029;-48
2021/11/22 11:36:37;;;;;;;6.07;2.97;;;10.90;66.00;;;;;;5051330;28;20037;-37
2021/11/22 11:39:28;;;;;;;4.03;2.75;;;10.90;65.90;;;;;;5058805;28;20441;-47
2021/11/22 11:42:02;;;;;;;;;;;10.90;66.00;;;;;;5059058;28;20032;-47
2021/11/22 11:44:55;;;;;;;5.32;3.20;;;10.90;66.30;;;;;;5057628;28;19915;-40
2021/11/22 11:47:44;;;;;;;5.25;3.35;;;10.80;66.50;;;;;;5058509;28;20029;-41
2021/11/22 11:50:22;;;;;;;4.93;2.95;;;10.90;66.40;;;;;;5058605;28;20056;-32
2021/11/22 11:52:54;;;;;;;3.90;2.65;;;10.90;66.10;;;;;;5058394;28;20033;-33
2021/11/22 11:55:20;;;;;;;4.55;2.70;;;10.90;66.00;;;;;;5058081;28;20075;-32
2021/11/22 11:57:46;;;;;;;4.82;3.60;;;10.90;66.00;;;;;;5057119;28;20029;-40
2021/11/22 12:00:27;;;;;;;4.90;2.85;;;10.90;66.10;;;;;;5058199;28;20021;-32
2021/11/22 12:02:58;;;;;;;;;;;10.90;66.00;;;;;;5058905;28;20037;-32
2021/11/22 12:05:48;;;;;;;3.35;2.35;;;10.90;66.10;;;;;;5058632;28;20200;-40
2021/11/22 12:08:25;;;;;;;6.83;3.13;;;10.90;65.70;;;;;;5058065;28;20025;-40
2021/11/22 12:10:53;;;;;;;3.72;2.20;;;11.00;65.60;;;;;;5057833;28;20376;-32
2021/11/22 12:13:19;;;;;;;6.95;2.53;;;11.00;65.40;;;;;;5058358;28;20029;-41
2021/11/22 12:15:54;;;;;;;3.90;2.35;;;11.00;65.20;;;;;;5058555;28;20036;-45
2021/11/22 12:18:26;;;;;;;4.93;3.15;;;11.00;64.80;;;;;;5058348;28;20082;-43
2021/11/22 12:20:58;;;;;;;4.28;2.72;;;10.90;64.70;;;;;;5058527;28;20036;-34
2021/11/22 12:23:39;;;;;;;5.20;3.75;;;10.90;64.40;;;;;;5058135;28;20090;-33
2021/11/22 12:26:05;;;;;;;4.43;2.97;;;10.90;64.20;;;;;;5057526;28;20033;-32
2021/11/22 12:28:31;;;;;;;5.03;2.42;;;10.80;64.10;;;;;;5057689;28;20080;-32
2021/11/22 12:31:05;;;;;;;4.53;2.58;;;10.80;64.20;;;;;;5058184;28;20061;-32
2021/11/22 12:33:33;;;;;;;5.20;3.33;;;10.70;64.30;;;;;;5058144;28;20033;-39
2021/11/22 12:36:11;;;;;;;5.88;2.40;;;10.70;64.40;;;;;;5058107;28;20356;-32
2021/11/22 12:38:47;;;;;;;2.95;2.22;;;10.60;64.50;;;;;;5058097;28;20021;-32
2021/11/22 12:41:31;;;;;;;4.20;2.40;;;10.60;64.80;;;;;;5056711;28;20417;-39